Time,TemperatureF,DewpointF,PressureIn,WindDirection,WindDirectionDegrees,WindSpeedMPH,WindSpeedGustMPH,Humidity,HourlyPrecipIn,Conditions,Clouds,dailyrainin,SoftwareType,DateUTC
2013-03-18 00:00:00,35.1,31.2,29.85,ESE,113,2.7,4.0,86,0.00,,,0.00,WUHU216HW,2013-03-18 05:00:00,
2013-03-18 00:05:00,35.3,31.4,29.85,ESE,113,1.8,4.0,86,0.00,,,0.00,WUHU216HW,2013-03-18 05:05:00,
2013-03-18 00:10:00,35.3,31.4,29.85,ESE,113,1.6,3.6,86,0.00,,,0.00,WUHU216HW,2013-03-18 05:10:00,
2013-03-18 00:15:00,35.3,31.4,29.86,ENE,68,1.1,3.4,86,0.00,,,0.00,WUHU216HW,2013-03-18 05:15:00,
2013-03-18 00:20:00,35.3,31.4,29.86,ENE,68,1.3,3.1,86,0.00,,,0.00,WUHU216HW,2013-03-18 05:20:00,
2013-03-18 00:25:00,35.3,31.4,29.85,ESE,113,0.2,2.5,86,0.00,,,0.00,WUHU216HW,2013-03-18 05:25:00,
2013-03-18 00:30:00,35.3,31.4,29.85,East,90,1.6,2.5,86,0.00,,,0.00,WUHU216HW,2013-03-18 05:30:00,
2013-03-18 00:35:00,35.5,31.6,29.84,ENE,68,1.1,2.9,86,0.00,,,0.00,WUHU216HW,2013-03-18 05:35:00,
2013-03-18 00:40:00,35.5,31.6,29.84,NE,45,1.1,3.4,86,0.00,,,0.00,WUHU216HW,2013-03-18 05:40:00,
2013-03-18 00:45:00,35.5,31.6,29.85,ENE,68,2.0,3.4,86,0.00,,,0.00,WUHU216HW,2013-03-18 05:45:00,
2013-03-18 00:50:00,35.5,31.6,29.85,ENE,68,0.7,2.5,86,0.00,,,0.00,WUHU216HW,2013-03-18 05:50:00,
2013-03-18 00:55:00,35.5,31.6,29.85,East,90,1.1,2.2,86,0.00,,,0.00,WUHU216HW,2013-03-18 05:55:00,
2013-03-18 01:00:00,35.6,31.8,29.84,ENE,68,0.9,2.5,86,0.00,,,0.00,WUHU216HW,2013-03-18 06:00:00,
2013-03-18 01:05:00,35.5,31.6,29.84,North,0,0.7,2.5,86,0.00,,,0.00,WUHU216HW,2013-03-18 06:05:00,
2013-03-18 01:10:00,35.6,31.8,29.84,East,90,0.0,2.0,86,0.00,,,0.00,WUHU216HW,2013-03-18 06:10:00,
2013-03-18 01:15:00,35.6,31.8,29.84,East,90,0.7,2.0,86,0.00,,,0.00,WUHU216HW,2013-03-18 06:15:00,
2013-03-18 01:20:00,35.5,31.6,29.84,ENE,68,1.1,2.9,86,0.00,,,0.00,WUHU216HW,2013-03-18 06:20:00,
2013-03-18 01:25:00,35.6,31.8,29.84,ENE,68,2.5,2.9,86,0.00,,,0.00,WUHU216HW,2013-03-18 06:25:00,
2013-03-18 01:30:00,35.5,31.6,29.85,ENE,68,0.9,2.5,86,0.00,,,0.00,WUHU216HW,2013-03-18 06:30:00,
2013-03-18 01:35:00,35.6,31.8,29.85,North,0,0.0,2.5,86,0.00,,,0.00,WUHU216HW,2013-03-18 06:35:00,
2013-03-18 01:40:00,35.6,31.8,29.86,NNE,23,0.0,2.5,86,0.00,,,0.00,WUHU216HW,2013-03-18 06:40:00,
2013-03-18 01:45:00,35.6,31.8,29.85,ESE,113,0.9,2.5,86,0.00,,,0.00,WUHU216HW,2013-03-18 06:45:00,
2013-03-18 01:50:00,35.6,31.8,29.85,ENE,68,0.2,2.5,86,0.00,,,0.00,WUHU216HW,2013-03-18 06:50:00,
2013-03-18 01:55:00,35.6,31.8,29.85,NE,45,0.4,1.3,86,0.00,,,0.00,WUHU216HW,2013-03-18 06:55:00,
2013-03-18 02:00:00,35.6,31.8,29.84,NE,45,0.2,1.1,86,0.00,,,0.00,WUHU216HW,2013-03-18 07:00:00,
2013-03-18 02:05:00,35.6,31.8,29.84,ESE,113,0.9,1.8,86,0.00,,,0.00,WUHU216HW,2013-03-18 07:05:00,
2013-03-18 02:10:00,35.6,31.8,29.82,East,90,1.6,2.7,86,0.00,,,0.00,WUHU216HW,2013-03-18 07:10:00,
2013-03-18 02:15:00,35.6,31.8,29.83,SSE,158,0.0,3.1,86,0.00,,,0.00,WUHU216HW,2013-03-18 07:15:00,
2013-03-18 02:20:00,35.5,31.6,29.82,ENE,68,2.5,4.5,86,0.00,,,0.00,WUHU216HW,2013-03-18 07:20:00,
2013-03-18 02:25:00,35.5,31.6,29.83,ESE,113,0.4,4.5,86,0.00,,,0.00,WUHU216HW,2013-03-18 07:25:00,
2013-03-18 02:30:00,35.5,31.6,29.82,ENE,68,4.9,4.9,86,0.00,,,0.00,WUHU216HW,2013-03-18 07:30:00,
2013-03-18 02:35:00,35.5,31.6,29.83,East,90,0.0,4.9,86,0.00,,,0.00,WUHU216HW,2013-03-18 07:35:00,
2013-03-18 02:40:00,35.3,31.4,29.84,ENE,68,2.0,3.4,86,0.00,,,0.00,WUHU216HW,2013-03-18 07:40:00,
2013-03-18 02:45:00,35.5,31.6,29.84,NE,45,0.9,2.0,86,0.00,,,0.00,WUHU216HW,2013-03-18 07:45:00,
2013-03-18 02:50:00,35.5,31.6,29.84,ESE,113,0.0,1.6,86,0.00,,,0.00,WUHU216HW,2013-03-18 07:50:00,
2013-03-18 02:55:00,35.6,31.8,29.84,NNE,23,0.4,0.9,86,0.00,,,0.00,WUHU216HW,2013-03-18 07:55:00,
2013-03-18 03:00:00,35.6,31.8,29.85,NNW,338,0.0,1.1,86,0.00,,,0.00,WUHU216HW,2013-03-18 08:00:00,
2013-03-18 03:05:00,35.8,32.2,29.86,NNW,338,0.9,1.1,87,0.00,,,0.00,WUHU216HW,2013-03-18 08:05:00,
2013-03-18 03:10:00,35.8,32.2,29.86,NNW,338,0.4,1.3,87,0.00,,,0.00,WUHU216HW,2013-03-18 08:10:00,
2013-03-18 03:15:00,35.8,32.2,29.86,NNW,338,0.0,1.3,87,0.00,,,0.00,WUHU216HW,2013-03-18 08:15:00,
2013-03-18 03:20:00,36.0,32.1,29.86,NW,315,0.7,1.6,86,0.00,,,0.00,WUHU216HW,2013-03-18 08:20:00,
2013-03-18 03:25:00,36.0,32.1,29.86,WNW,293,0.9,1.6,86,0.00,,,0.00,WUHU216HW,2013-03-18 08:25:00,
2013-03-18 03:30:00,36.0,32.1,29.86,NNW,338,0.0,1.1,86,0.00,,,0.00,WUHU216HW,2013-03-18 08:30:00,
2013-03-18 03:35:00,36.2,32.3,29.85,WSW,248,0.7,2.5,86,0.00,,,0.00,WUHU216HW,2013-03-18 08:35:00,
2013-03-18 03:40:00,36.2,32.3,29.85,West,270,1.1,2.5,86,0.00,,,0.00,WUHU216HW,2013-03-18 08:40:00,
2013-03-18 03:45:00,36.2,32.3,29.85,WNW,293,0.4,2.2,86,0.00,,,0.00,WUHU216HW,2013-03-18 08:45:00,
2013-03-18 03:50:00,36.2,32.3,29.84,NNW,338,0.4,1.6,86,0.00,,,0.00,WUHU216HW,2013-03-18 08:50:00,
2013-03-18 03:55:00,36.2,32.3,29.84,NW,315,0.9,1.6,86,0.00,,,0.00,WUHU216HW,2013-03-18 08:55:00,
2013-03-18 04:00:00,36.2,32.3,29.85,NNW,338,1.8,2.5,86,0.00,,,0.00,WUHU216HW,2013-03-18 09:00:00,
2013-03-18 04:05:00,36.0,32.1,29.84,WNW,293,1.8,2.5,86,0.00,,,0.00,WUHU216HW,2013-03-18 09:05:00,
2013-03-18 04:10:00,36.2,32.3,29.84,WSW,248,1.3,2.5,86,0.00,,,0.00,WUHU216HW,2013-03-18 09:10:00,
2013-03-18 04:15:00,36.2,32.3,29.84,WNW,293,1.6,2.2,86,0.00,,,0.00,WUHU216HW,2013-03-18 09:15:00,
2013-03-18 04:20:00,36.0,32.1,29.83,NW,315,2.2,2.2,86,0.00,,,0.00,WUHU216HW,2013-03-18 09:20:00,
2013-03-18 04:25:00,36.0,32.1,29.83,NNW,338,4.7,4.7,86,0.00,,,0.00,WUHU216HW,2013-03-18 09:25:00,
2013-03-18 04:30:00,35.8,32.0,29.83,NNW,338,0.7,4.7,86,0.00,,,0.00,WUHU216HW,2013-03-18 09:30:00,
2013-03-18 04:35:00,35.8,32.0,29.83,NW,315,3.6,3.6,86,0.00,,,0.00,WUHU216HW,2013-03-18 09:35:00,
2013-03-18 04:40:00,35.8,32.0,29.83,NW,315,1.8,3.6,86,0.00,,,0.00,WUHU216HW,2013-03-18 09:40:00,
2013-03-18 04:45:00,36.0,32.1,29.83,WNW,293,0.4,3.4,86,0.00,,,0.00,WUHU216HW,2013-03-18 09:45:00,
2013-03-18 04:50:00,36.0,32.1,29.82,West,270,1.6,3.1,86,0.00,,,0.00,WUHU216HW,2013-03-18 09:50:00,
2013-03-18 04:55:00,36.0,32.1,29.83,West,270,2.0,3.4,86,0.00,,,0.00,WUHU216HW,2013-03-18 09:55:00,
2013-03-18 05:00:00,36.0,32.1,29.82,NNW,338,0.4,3.4,86,0.00,,,0.00,WUHU216HW,2013-03-18 10:00:00,
2013-03-18 05:05:00,36.0,32.1,29.82,NW,315,0.4,2.5,86,0.00,,,0.00,WUHU216HW,2013-03-18 10:05:00,
2013-03-18 05:10:00,36.0,32.1,29.82,WNW,293,0.4,2.2,86,0.00,,,0.00,WUHU216HW,2013-03-18 10:10:00,
2013-03-18 05:15:00,36.0,32.1,29.83,NNW,338,2.2,3.1,86,0.00,,,0.00,WUHU216HW,2013-03-18 10:15:00,
2013-03-18 05:20:00,36.2,32.3,29.84,NNW,338,1.1,3.1,86,0.00,,,0.00,WUHU216HW,2013-03-18 10:20:00,
2013-03-18 05:25:00,36.2,32.3,29.84,NNW,338,1.8,3.1,86,0.00,,,0.00,WUHU216HW,2013-03-18 10:25:00,
2013-03-18 05:30:00,36.2,32.3,29.84,WSW,248,1.1,2.5,86,0.00,,,0.00,WUHU216HW,2013-03-18 10:30:00,
2013-03-18 05:35:00,36.2,32.3,29.84,North,0,1.3,2.2,86,0.00,,,0.00,WUHU216HW,2013-03-18 10:35:00,
2013-03-18 05:40:00,36.2,32.3,29.85,NW,315,1.3,2.9,86,0.00,,,0.00,WUHU216HW,2013-03-18 10:40:00,
2013-03-18 05:45:00,36.2,32.3,29.86,NNE,23,1.8,3.8,86,0.00,,,0.00,WUHU216HW,2013-03-18 10:45:00,
2013-03-18 05:50:00,36.2,32.3,29.86,NW,315,4.0,5.1,86,0.00,,,0.00,WUHU216HW,2013-03-18 10:50:00,
2013-03-18 05:55:00,36.0,32.1,29.87,NNW,338,3.6,5.1,86,0.00,,,0.00,WUHU216HW,2013-03-18 10:55:00,
2013-03-18 06:00:00,36.0,32.4,29.88,North,0,3.4,4.0,87,0.00,,,0.00,WUHU216HW,2013-03-18 11:00:00,
2013-03-18 06:05:00,36.0,32.4,29.88,NW,315,2.0,5.4,87,0.00,,,0.00,WUHU216HW,2013-03-18 11:05:00,
2013-03-18 06:10:00,36.0,32.4,29.88,WNW,293,4.7,5.4,87,0.00,,,0.00,WUHU216HW,2013-03-18 11:10:00,
2013-03-18 06:15:00,36.0,32.4,29.88,NNW,338,1.1,4.9,87,0.00,,,0.00,WUHU216HW,2013-03-18 11:15:00,
2013-03-18 06:20:00,36.0,32.4,29.87,WSW,248,2.5,8.3,87,0.00,,,0.00,WUHU216HW,2013-03-18 11:20:00,
2013-03-18 06:25:00,35.8,32.2,29.87,NNE,23,1.1,8.3,87,0.00,,,0.00,WUHU216HW,2013-03-18 11:25:00,
2013-03-18 06:30:00,35.8,32.2,29.88,North,0,1.8,4.7,87,0.00,,,0.00,WUHU216HW,2013-03-18 11:30:00,
2013-03-18 06:35:00,35.8,32.2,29.88,North,0,3.8,4.7,87,0.00,,,0.00,WUHU216HW,2013-03-18 11:35:00,
2013-03-18 06:40:00,35.8,32.2,29.88,NNW,338,3.8,4.0,87,0.00,,,0.00,WUHU216HW,2013-03-18 11:40:00,
2013-03-18 06:45:00,35.8,32.2,29.89,WNW,293,1.8,3.8,87,0.00,,,0.00,WUHU216HW,2013-03-18 11:45:00,
2013-03-18 06:50:00,36.0,32.4,29.88,NNW,338,1.1,3.8,87,0.00,,,0.00,WUHU216HW,2013-03-18 11:50:00,
2013-03-18 06:55:00,36.0,32.4,29.88,SSW,203,2.9,3.6,87,0.00,,,0.00,WUHU216HW,2013-03-18 11:55:00,
2013-03-18 07:00:00,36.0,32.4,29.88,NNW,338,3.1,7.2,87,0.00,,,0.00,WUHU216HW,2013-03-18 12:00:00,
2013-03-18 07:05:00,36.0,32.4,29.89,WSW,248,2.7,7.2,87,0.00,,,0.00,WUHU216HW,2013-03-18 12:05:00,
2013-03-18 07:10:00,36.0,32.4,29.90,NW,315,3.1,6.9,87,0.00,,,0.00,WUHU216HW,2013-03-18 12:10:00,
2013-03-18 07:15:00,36.0,32.4,29.91,NNW,338,1.6,6.9,87,0.00,,,0.00,WUHU216HW,2013-03-18 12:15:00,
2013-03-18 07:20:00,36.0,32.4,29.91,WNW,293,3.1,6.5,87,0.00,,,0.00,WUHU216HW,2013-03-18 12:20:00,
2013-03-18 07:25:00,36.0,32.4,29.90,NW,315,1.1,6.5,87,0.00,,,0.00,WUHU216HW,2013-03-18 12:25:00,
2013-03-18 07:30:00,36.0,32.4,29.91,NW,315,2.0,4.0,87,0.00,,,0.00,WUHU216HW,2013-03-18 12:30:00,
2013-03-18 07:35:00,36.0,32.4,29.91,WSW,248,2.2,5.4,87,0.00,,,0.00,WUHU216HW,2013-03-18 12:35:00,
2013-03-18 07:40:00,36.2,32.6,29.90,NNW,338,5.6,6.3,87,0.00,,,0.00,WUHU216HW,2013-03-18 12:40:00,
2013-03-18 07:45:00,36.4,32.5,29.91,North,0,4.0,6.3,86,0.00,,,0.00,WUHU216HW,2013-03-18 12:45:00,
2013-03-18 07:50:00,36.2,32.3,29.91,NNW,338,4.0,7.4,86,0.00,,,0.00,WUHU216HW,2013-03-18 12:50:00,
2013-03-18 07:55:00,36.4,32.5,29.90,NNW,338,1.1,7.4,86,0.00,,,0.00,WUHU216HW,2013-03-18 12:55:00,
2013-03-18 08:00:00,36.4,32.5,29.90,NNW,338,2.5,4.9,86,0.00,,,0.00,WUHU216HW,2013-03-18 13:00:00,
2013-03-18 08:05:00,36.4,32.5,29.91,NW,315,2.0,4.9,86,0.00,,,0.00,WUHU216HW,2013-03-18 13:05:00,
2013-03-18 08:10:00,36.5,32.7,29.91,NNW,338,2.9,5.8,86,0.00,,,0.00,WUHU216HW,2013-03-18 13:10:00,
2013-03-18 08:15:00,36.5,32.7,29.91,WSW,248,1.1,5.8,86,0.00,,,0.00,WUHU216HW,2013-03-18 13:15:00,
2013-03-18 08:20:00,36.7,32.9,29.91,WNW,293,1.1,6.0,86,0.00,,,0.00,WUHU216HW,2013-03-18 13:20:00,
2013-03-18 08:25:00,36.7,32.9,29.91,NNW,338,4.0,6.5,86,0.00,,,0.00,WUHU216HW,2013-03-18 13:25:00,
2013-03-18 08:30:00,36.9,33.0,29.91,WSW,248,1.3,6.5,86,0.00,,,0.00,WUHU216HW,2013-03-18 13:30:00,
2013-03-18 08:35:00,37.1,33.2,29.91,NW,315,3.4,4.5,86,0.00,,,0.00,WUHU216HW,2013-03-18 13:35:00,
2013-03-18 08:40:00,37.1,33.2,29.92,North,0,4.3,5.1,86,0.00,,,0.00,WUHU216HW,2013-03-18 13:40:00,
2013-03-18 08:45:00,37.1,32.9,29.93,SW,225,6.3,6.3,85,0.00,,,0.00,WUHU216HW,2013-03-18 13:45:00,
2013-03-18 08:50:00,37.1,32.9,29.93,NNW,338,2.2,6.3,85,0.00,,,0.00,WUHU216HW,2013-03-18 13:50:00,
2013-03-18 08:55:00,37.3,33.1,29.93,WNW,293,4.0,6.3,85,0.00,,,0.00,WUHU216HW,2013-03-18 13:55:00,
2013-03-18 09:00:00,37.3,33.1,29.93,West,270,5.4,7.6,85,0.00,,,0.00,WUHU216HW,2013-03-18 14:00:00,
2013-03-18 09:05:00,37.3,33.1,29.93,NW,315,2.5,8.5,85,0.00,,,0.00,WUHU216HW,2013-03-18 14:05:00,
2013-03-18 09:10:00,37.4,33.3,29.93,WNW,293,2.5,8.5,85,0.00,,,0.00,WUHU216HW,2013-03-18 14:10:00,
2013-03-18 09:15:00,37.6,33.5,29.93,NW,315,3.4,7.6,85,0.00,,,0.00,WUHU216HW,2013-03-18 14:15:00,
2013-03-18 09:20:00,37.8,33.7,29.94,NNW,338,3.4,7.6,85,0.00,,,0.00,WUHU216HW,2013-03-18 14:20:00,
2013-03-18 09:25:00,38.0,33.8,29.94,West,270,3.1,5.1,85,0.00,,,0.00,WUHU216HW,2013-03-18 14:25:00,
2013-03-18 09:30:00,38.3,34.2,29.94,NNW,338,4.7,6.9,85,0.00,,,0.00,WUHU216HW,2013-03-18 14:30:00,
2013-03-18 09:35:00,38.5,34.4,29.94,NW,315,2.9,6.9,85,0.00,,,0.00,WUHU216HW,2013-03-18 14:35:00,
2013-03-18 09:40:00,38.9,34.7,29.94,WNW,293,4.0,5.6,85,0.00,,,0.00,WUHU216HW,2013-03-18 14:40:00,
2013-03-18 09:45:00,39.1,34.7,29.94,NNW,338,5.4,5.8,84,0.00,,,0.00,WUHU216HW,2013-03-18 14:45:00,
2013-03-18 09:50:00,39.2,34.8,29.94,NW,315,2.5,5.8,84,0.00,,,0.00,WUHU216HW,2013-03-18 14:50:00,
2013-03-18 09:55:00,39.6,35.2,29.94,North,0,4.0,6.7,84,0.00,,,0.00,WUHU216HW,2013-03-18 14:55:00,
2013-03-18 10:00:00,40.0,35.5,29.94,North,0,7.6,9.6,84,0.00,,,0.00,WUHU216HW,2013-03-18 15:00:00,
2013-03-18 10:05:00,40.0,35.5,29.94,North,0,7.6,9.6,84,0.00,,,0.00,WUHU216HW,2013-03-18 15:05:00,
2013-03-18 11:00:00,43.7,37.0,29.96,NW,315,4.7,4.7,77,0.00,,,0.00,WUHU216HW,2013-03-18 16:00:00,
2013-03-18 11:05:00,44.3,37.2,29.97,North,0,3.4,7.8,76,0.00,,,0.00,WUHU216HW,2013-03-18 16:05:00,
2013-03-18 11:10:00,44.5,36.6,29.97,NNW,338,3.1,7.8,74,0.00,,,0.00,WUHU216HW,2013-03-18 16:10:00,
2013-03-18 11:15:00,44.8,36.6,29.97,NW,315,7.8,8.9,73,0.00,,,0.00,WUHU216HW,2013-03-18 16:15:00,
2013-03-18 11:20:00,45.2,36.7,29.97,NNW,338,4.0,8.9,72,0.00,,,0.00,WUHU216HW,2013-03-18 16:20:00,
2013-03-18 11:25:00,45.5,36.7,29.97,NNW,338,7.6,9.4,71,0.00,,,0.00,WUHU216HW,2013-03-18 16:25:00,
2013-03-18 11:30:00,45.7,36.5,29.97,West,270,6.5,9.4,70,0.00,,,0.00,WUHU216HW,2013-03-18 16:30:00,
2013-03-18 11:35:00,45.9,36.4,29.97,NNW,338,5.4,9.2,69,0.00,,,0.00,WUHU216HW,2013-03-18 16:35:00,
2013-03-18 11:40:00,46.4,36.9,29.97,NNE,23,3.4,9.2,69,0.00,,,0.00,WUHU216HW,2013-03-18 16:40:00,
2013-03-18 11:45:00,46.6,36.6,29.97,WNW,293,5.4,9.8,68,0.00,,,0.00,WUHU216HW,2013-03-18 16:45:00,
2013-03-18 11:50:00,47.0,36.2,29.97,NNW,338,5.8,9.8,66,0.00,,,0.00,WUHU216HW,2013-03-18 16:50:00,
2013-03-18 11:55:00,47.2,36.4,29.97,NNW,338,7.2,7.6,66,0.00,,,0.00,WUHU216HW,2013-03-18 16:55:00,
2013-03-18 12:00:00,47.3,36.2,29.97,North,0,4.5,8.7,65,0.00,,,0.00,WUHU216HW,2013-03-18 17:00:00,
2013-03-18 12:05:00,47.5,35.9,29.97,SSW,203,4.7,8.7,64,0.00,,,0.00,WUHU216HW,2013-03-18 17:05:00,
2013-03-18 12:10:00,47.9,35.5,29.98,NNW,338,6.3,10.5,62,0.00,,,0.00,WUHU216HW,2013-03-18 17:10:00,
2013-03-18 12:15:00,47.9,35.1,29.98,North,0,3.4,10.5,61,0.00,,,0.00,WUHU216HW,2013-03-18 17:15:00,
2013-03-18 12:20:00,47.9,34.3,29.98,NNW,338,8.5,11.6,59,0.00,,,0.00,WUHU216HW,2013-03-18 17:20:00,
2013-03-18 12:25:00,48.1,34.9,29.98,NNW,338,7.8,11.6,60,0.00,,,0.00,WUHU216HW,2013-03-18 17:25:00,
2013-03-18 12:30:00,48.2,35.1,29.98,NNE,23,4.7,10.5,60,0.00,,,0.00,WUHU216HW,2013-03-18 17:30:00,
2013-03-18 12:35:00,48.4,34.8,29.99,NNE,23,8.5,11.2,59,0.00,,,0.00,WUHU216HW,2013-03-18 17:35:00,
2013-03-18 12:40:00,48.4,34.3,29.99,WNW,293,6.3,13.4,58,0.00,,,0.00,WUHU216HW,2013-03-18 17:40:00,
2013-03-18 12:45:00,48.4,34.8,29.99,NNW,338,9.2,13.4,59,0.00,,,0.00,WUHU216HW,2013-03-18 17:45:00,
2013-03-18 12:50:00,48.6,34.0,29.98,North,0,7.6,11.6,57,0.00,,,0.00,WUHU216HW,2013-03-18 17:50:00,
2013-03-18 12:55:00,48.8,33.8,29.98,NW,315,9.8,13.4,56,0.00,,,0.00,WUHU216HW,2013-03-18 17:55:00,
2013-03-18 13:00:00,48.6,33.1,29.98,NNW,338,6.9,13.4,55,0.00,,,0.00,WUHU216HW,2013-03-18 18:00:00,
2013-03-18 13:05:00,48.8,33.3,29.99,NNW,338,11.2,12.3,55,0.00,,,0.00,WUHU216HW,2013-03-18 18:05:00,
2013-03-18 13:10:00,48.8,33.3,29.99,NW,315,9.4,11.4,55,0.00,,,0.00,WUHU216HW,2013-03-18 18:10:00,
2013-03-18 13:15:00,49.0,33.9,29.99,ESE,113,0.7,11.4,56,0.00,,,0.00,WUHU216HW,2013-03-18 18:15:00,
2013-03-18 13:20:00,49.3,34.2,29.99,NNW,338,3.4,8.3,56,0.00,,,0.00,WUHU216HW,2013-03-18 18:20:00,
2013-03-18 13:25:00,49.7,34.6,29.99,West,270,4.0,8.5,56,0.00,,,0.00,WUHU216HW,2013-03-18 18:25:00,
2013-03-18 13:30:00,49.9,34.3,29.99,West,270,8.5,10.7,55,0.00,,,0.00,WUHU216HW,2013-03-18 18:30:00,
2013-03-18 13:35:00,50.0,34.9,29.99,West,270,9.6,10.7,56,0.00,,,0.00,WUHU216HW,2013-03-18 18:35:00,
2013-03-18 13:40:00,50.4,35.3,29.99,NNW,338,6.5,9.6,56,0.00,,,0.00,WUHU216HW,2013-03-18 18:40:00,
2013-03-18 13:45:00,50.4,34.4,29.99,NW,315,9.2,9.8,54,0.00,,,0.00,WUHU216HW,2013-03-18 18:45:00,
2013-03-18 13:50:00,50.4,33.9,30.00,North,0,11.4,11.4,53,0.00,,,0.00,WUHU216HW,2013-03-18 18:50:00,
2013-03-18 13:55:00,50.2,32.9,30.00,NE,45,14.1,14.1,51,0.00,,,0.00,WUHU216HW,2013-03-18 18:55:00,
2013-03-18 14:00:00,50.0,32.2,29.99,NW,315,4.5,14.1,50,0.00,,,0.00,WUHU216HW,2013-03-18 19:00:00,
2013-03-18 14:05:00,50.0,32.2,30.00,NNW,338,8.5,14.1,50,0.00,,,0.00,WUHU216HW,2013-03-18 19:05:00,
2013-03-18 14:10:00,50.0,32.2,30.00,NNW,338,6.3,11.9,50,0.00,,,0.00,WUHU216HW,2013-03-18 19:10:00,
2013-03-18 14:15:00,50.4,32.6,29.99,NNW,338,7.2,9.2,50,0.00,,,0.00,WUHU216HW,2013-03-18 19:15:00,
2013-03-18 14:20:00,50.4,32.6,30.00,NW,315,7.8,10.5,50,0.00,,,0.00,WUHU216HW,2013-03-18 19:20:00,
2013-03-18 14:25:00,50.4,32.0,29.99,NNW,338,5.8,12.1,49,0.00,,,0.00,WUHU216HW,2013-03-18 19:25:00,
2013-03-18 14:30:00,50.4,31.4,29.99,North,0,3.4,12.1,48,0.00,,,0.00,WUHU216HW,2013-03-18 19:30:00,
2013-03-18 14:35:00,50.6,31.6,29.99,North,0,9.6,11.4,48,0.00,,,0.00,WUHU216HW,2013-03-18 19:35:00,
2013-03-18 14:40:00,50.2,30.7,29.99,North,0,8.1,12.8,47,0.00,,,0.00,WUHU216HW,2013-03-18 19:40:00,
2013-03-18 14:45:00,50.2,30.7,29.99,NW,315,5.6,12.8,47,0.00,,,0.00,WUHU216HW,2013-03-18 19:45:00,
2013-03-18 14:50:00,50.6,31.1,29.99,WNW,293,5.8,10.7,47,0.00,,,0.00,WUHU216HW,2013-03-18 19:50:00,
2013-03-18 14:55:00,50.8,31.8,29.99,NNW,338,6.3,10.7,48,0.00,,,0.00,WUHU216HW,2013-03-18 19:55:00,
2013-03-18 15:00:00,50.9,32.0,29.99,NNW,338,4.0,10.7,48,0.00,,,0.00,WUHU216HW,2013-03-18 20:00:00,
2013-03-18 15:05:00,51.3,32.2,29.99,NNW,338,5.8,7.6,48,0.00,,,0.00,WUHU216HW,2013-03-18 20:05:00,
2013-03-18 15:10:00,51.5,32.4,29.99,NNW,338,4.7,7.6,48,0.00,,,0.00,WUHU216HW,2013-03-18 20:10:00,
2013-03-18 15:15:00,52.0,32.9,29.99,NW,315,4.7,7.2,48,0.00,,,0.00,WUHU216HW,2013-03-18 20:15:00,
2013-03-18 15:19:00,52.2,33.0,29.99,NNW,338,6.3,11.0,48,0.00,,,0.00,WUHU216HW,2013-03-18 20:19:00,
2013-03-18 15:20:00,52.2,33.0,29.99,NNW,338,6.3,11.0,48,0.00,,,0.00,WUHU216HW,2013-03-18 20:20:00,
2013-03-18 15:25:00,52.2,33.0,29.99,NNW,338,6.3,11.0,48,0.00,,,0.00,WUHU216HW,2013-03-18 20:25:00,
2013-03-18 16:00:00,52.7,31.9,29.99,NW,315,2.9,2.9,45,0.01,,,0.00,WUHU216HW,2013-03-18 21:00:00,
2013-03-18 16:05:00,52.7,31.9,29.99,NW,315,2.9,2.9,45,0.01,,,0.00,WUHU216HW,2013-03-18 21:05:00,
2013-03-18 17:00:00,53.1,30.0,29.99,NNW,338,6.0,6.0,41,0.00,,,0.01,WUHU216HW,2013-03-18 22:00:00,
2013-03-18 17:05:00,53.1,30.0,29.99,NNW,338,6.0,6.0,41,0.00,,,0.01,WUHU216HW,2013-03-18 22:05:00,
2013-03-18 18:00:00,52.7,27.7,30.01,NNW,338,4.5,4.5,38,0.00,,,0.01,WUHU216HW,2013-03-18 23:00:00,
2013-03-18 18:05:00,52.6,26.8,30.01,North,0,10.1,15.4,37,0.00,,,0.01,WUHU216HW,2013-03-18 23:05:00,
2013-03-18 18:10:00,52.2,26.6,30.01,NNW,338,6.3,15.4,37,0.00,,,0.01,WUHU216HW,2013-03-18 23:10:00,
2013-03-18 18:15:00,52.0,26.4,30.01,NNW,338,6.9,11.2,37,0.00,,,0.01,WUHU216HW,2013-03-18 23:15:00,
2013-03-18 18:20:00,51.8,26.2,30.01,NW,315,10.5,12.8,37,0.00,,,0.01,WUHU216HW,2013-03-18 23:20:00,
2013-03-18 18:25:00,51.5,25.2,30.02,NW,315,10.3,14.3,36,0.00,,,0.01,WUHU216HW,2013-03-18 23:25:00,
2013-03-18 18:30:00,51.3,25.8,30.02,NW,315,11.9,14.3,37,0.00,,,0.01,WUHU216HW,2013-03-18 23:30:00,
2013-03-18 18:35:00,50.9,25.4,30.02,WSW,248,6.9,11.9,37,0.00,,,0.01,WUHU216HW,2013-03-18 23:35:00,
2013-03-18 18:40:00,50.8,24.6,30.02,NNW,338,8.1,11.9,36,0.00,,,0.01,WUHU216HW,2013-03-18 23:40:00,
2013-03-18 18:45:00,50.4,24.9,30.03,West,270,11.4,11.4,37,0.00,,,0.01,WUHU216HW,2013-03-18 23:45:00,
2013-03-18 18:50:00,50.2,24.8,30.03,NNW,338,4.7,11.4,37,0.00,,,0.01,WUHU216HW,2013-03-18 23:50:00,
2013-03-18 18:55:00,50.0,24.6,30.03,NNW,338,6.9,9.6,37,0.00,,,0.01,WUHU216HW,2013-03-18 23:55:00,
2013-03-18 19:00:00,49.9,25.1,30.03,NNW,338,6.5,10.7,38,0.00,,,0.01,WUHU216HW,2013-03-19 00:00:00,
2013-03-18 19:03:00,49.7,24.9,30.03,NNW,338,5.4,5.4,38,0.00,,,0.01,WUHU216HW,2013-03-19 00:03:00,
2013-03-18 19:05:00,49.7,24.9,30.03,NNW,338,5.4,10.7,38,0.00,,,0.01,WUHU216HW,2013-03-19 00:05:00,
2013-03-18 19:10:00,49.7,24.9,30.03,NNW,338,5.4,8.3,38,0.00,,,0.01,WUHU216HW,2013-03-19 00:10:00,
2013-03-18 20:00:00,47.2,23.4,30.06,NNW,338,8.1,8.1,39,0.00,,,0.01,WUHU216HW,2013-03-19 01:00:00,
2013-03-18 20:05:00,47.0,23.2,30.07,North,0,4.0,10.1,39,0.00,,,0.01,WUHU216HW,2013-03-19 01:05:00,
2013-03-18 20:10:00,46.8,23.0,30.07,NW,315,2.2,14.1,39,0.00,,,0.01,WUHU216HW,2013-03-19 01:10:00,
2013-03-18 20:15:00,46.4,23.4,30.08,NNW,338,5.1,14.1,40,0.00,,,0.01,WUHU216HW,2013-03-19 01:15:00,
2013-03-18 20:20:00,46.3,23.2,30.08,NNW,338,4.5,9.4,40,0.00,,,0.01,WUHU216HW,2013-03-19 01:20:00,
2013-03-18 20:25:00,45.9,23.0,30.08,NNW,338,2.2,9.4,40,0.00,,,0.01,WUHU216HW,2013-03-19 01:25:00,
2013-03-18 20:30:00,45.7,22.8,30.09,North,0,4.0,8.3,40,0.00,,,0.01,WUHU216HW,2013-03-19 01:30:00,
2013-03-18 20:35:00,45.5,22.6,30.09,North,0,5.4,8.5,40,0.00,,,0.01,WUHU216HW,2013-03-19 01:35:00,
2013-03-18 20:40:00,45.2,22.2,30.09,NW,315,5.4,8.5,40,0.00,,,0.01,WUHU216HW,2013-03-19 01:40:00,
2013-03-18 20:45:00,45.0,22.2,30.09,NW,315,4.0,9.8,40,0.00,,,0.01,WUHU216HW,2013-03-19 01:45:00,
2013-03-18 20:50:00,44.8,22.0,30.09,North,0,2.9,9.8,40,0.00,,,0.01,WUHU216HW,2013-03-19 01:50:00,
2013-03-18 20:55:00,44.6,21.8,30.10,NNW,338,3.4,7.2,40,0.00,,,0.01,WUHU216HW,2013-03-19 01:55:00,
2013-03-18 21:00:00,44.5,22.1,30.10,NNW,338,3.4,5.6,41,0.00,,,0.01,WUHU216HW,2013-03-19 02:00:00,
2013-03-18 21:05:00,44.3,22.0,30.10,NW,315,1.8,5.1,41,0.00,,,0.01,WUHU216HW,2013-03-19 02:05:00,
2013-03-18 21:10:00,43.9,21.7,30.11,NNW,338,5.6,5.6,41,0.00,,,0.01,WUHU216HW,2013-03-19 02:10:00,
2013-03-18 21:15:00,43.7,21.5,30.11,NNW,338,3.4,5.6,41,0.00,,,0.01,WUHU216HW,2013-03-19 02:15:00,
2013-03-18 21:20:00,43.6,21.3,30.11,NNW,338,4.3,5.8,41,0.00,,,0.01,WUHU216HW,2013-03-19 02:20:00,
2013-03-18 21:25:00,43.4,21.2,30.11,North,0,2.0,5.8,41,0.00,,,0.01,WUHU216HW,2013-03-19 02:25:00,
2013-03-18 21:30:00,43.2,21.6,30.12,NNW,338,2.5,6.0,42,0.00,,,0.01,WUHU216HW,2013-03-19 02:30:00,
2013-03-18 21:35:00,43.0,21.4,30.12,NW,315,3.8,6.0,42,0.00,,,0.01,WUHU216HW,2013-03-19 02:35:00,
2013-03-18 21:40:00,42.8,21.2,30.12,NE,45,1.8,6.0,42,0.00,,,0.01,WUHU216HW,2013-03-19 02:40:00,
2013-03-18 21:45:00,42.7,21.1,30.12,North,0,4.7,7.4,42,0.00,,,0.01,WUHU216HW,2013-03-19 02:45:00,
2013-03-18 21:50:00,42.5,20.9,30.12,North,0,3.4,7.4,42,0.00,,,0.01,WUHU216HW,2013-03-19 02:50:00,
2013-03-18 21:55:00,42.1,20.6,30.12,North,0,4.0,6.5,42,0.00,,,0.01,WUHU216HW,2013-03-19 02:55:00,
2013-03-18 22:00:00,42.1,20.6,30.12,NNW,338,1.6,4.7,42,0.00,,,0.01,WUHU216HW,2013-03-19 03:00:00,
2013-03-18 22:05:00,41.8,20.8,30.12,WNW,293,4.3,4.7,43,0.00,,,0.01,WUHU216HW,2013-03-19 03:05:00,
2013-03-18 22:10:00,41.6,20.6,30.13,NW,315,3.8,6.9,43,0.00,,,0.01,WUHU216HW,2013-03-19 03:10:00,
2013-03-18 22:15:00,41.4,20.4,30.13,North,0,2.0,6.9,43,0.00,,,0.01,WUHU216HW,2013-03-19 03:15:00,
2013-03-18 22:20:00,41.2,20.3,30.13,NW,315,2.2,8.3,43,0.00,,,0.01,WUHU216HW,2013-03-19 03:20:00,
2013-03-18 22:25:00,41.0,20.1,30.14,NNW,338,1.8,8.3,43,0.00,,,0.01,WUHU216HW,2013-03-19 03:25:00,
2013-03-18 22:30:00,40.9,20.0,30.13,North,0,1.6,4.0,43,0.00,,,0.01,WUHU216HW,2013-03-19 03:30:00,
2013-03-18 22:35:00,40.7,19.8,30.14,ENE,68,1.1,4.0,43,0.00,,,0.01,WUHU216HW,2013-03-19 03:35:00,
2013-03-18 22:40:00,40.5,20.2,30.13,North,0,2.0,4.0,44,0.00,,,0.01,WUHU216HW,2013-03-19 03:40:00,
2013-03-18 22:45:00,40.3,20.0,30.13,NNE,23,1.1,6.7,44,0.00,,,0.01,WUHU216HW,2013-03-19 03:45:00,
2013-03-18 22:50:00,40.0,19.6,30.14,NW,315,1.3,6.7,44,0.00,,,0.01,WUHU216HW,2013-03-19 03:50:00,
2013-03-18 22:55:00,39.8,19.5,30.14,North,0,2.5,4.7,44,0.00,,,0.01,WUHU216HW,2013-03-19 03:55:00,
2013-03-18 23:00:00,39.6,19.4,30.14,NNW,338,2.0,4.7,44,0.00,,,0.01,WUHU216HW,2013-03-19 04:00:00,
2013-03-18 23:01:00,39.6,19.4,30.14,NNE,23,1.6,4.7,44,0.00,,,0.01,WUHU216HW,2013-03-19 04:01:00,
2013-03-18 23:06:00,39.4,19.7,30.14,NNE,23,0.7,3.4,45,0.00,,,0.01,WUHU216HW,2013-03-19 04:06:00,
2013-03-18 23:11:00,39.2,19.5,30.14,North,0,0.9,4.3,45,0.00,,,0.01,WUHU216HW,2013-03-19 04:11:00,
2013-03-18 23:16:00,39.1,19.4,30.14,North,0,3.4,4.3,45,0.00,,,0.01,WUHU216HW,2013-03-19 04:16:00,
2013-03-18 23:21:00,38.9,19.2,30.15,North,0,2.2,4.0,45,0.00,,,0.01,WUHU216HW,2013-03-19 04:21:00,
2013-03-18 23:27:00,38.7,19.1,30.15,NNW,338,0.9,4.0,45,0.00,,,0.01,WUHU216HW,2013-03-19 04:27:00,
2013-03-18 23:32:00,38.5,18.9,30.15,NNW,338,1.1,2.7,45,0.00,,,0.01,WUHU216HW,2013-03-19 04:32:00,
2013-03-18 23:37:00,38.3,18.7,30.15,North,0,0.0,1.6,45,0.00,,,0.01,WUHU216HW,2013-03-19 04:37:00,
2013-03-18 23:42:00,38.2,18.5,30.15,North,0,0.0,2.2,45,0.00,,,0.01,WUHU216HW,2013-03-19 04:42:00,
2013-03-18 23:47:00,38.0,18.4,30.15,NNW,338,0.2,2.2,45,0.00,,,0.01,WUHU216HW,2013-03-19 04:47:00,
2013-03-18 23:52:00,37.8,18.7,30.15,NNW,338,0.0,2.2,46,0.00,,,0.01,WUHU216HW,2013-03-19 04:52:00,
2013-03-18 23:57:00,37.6,18.6,30.15,North,0,0.0,1.6,46,0.00,,,0.01,WUHU216HW,2013-03-19 04:57:00,